sensor_id;sensor_type;location;lat;lon;timestamp;pressure;altitude;pressure_sealevel;temperature;humidity
68859;BME280;55864;49.238;8.092;2022-12-07T00:01:26;99625.50;;;3.32;82.85
68859;BME280;55864;49.238;8.092;2022-12-07T00:03:27;99637.56;;;3.33;81.87
68859;BME280;55864;49.238;8.092;2022-12-07T00:05:29;99631.53;;;3.32;81.98
68859;BME280;55864;49.238;8.092;2022-12-07T00:07:29;99630.31;;;3.24;82.05
68859;BME280;55864;49.238;8.092;2022-12-07T00:09:30;99624.94;;;3.27;82.80
68859;BME280;55864;49.238;8.092;2022-12-07T00:11:30;99627.25;;;3.45;82.13
68859;BME280;55864;49.238;8.092;2022-12-07T00:13:32;99625.31;;;3.21;82.75
68859;BME280;55864;49.238;8.092;2022-12-07T00:15:33;99624.91;;;3.13;82.93
68859;BME280;55864;49.238;8.092;2022-12-07T00:17:35;99623.16;;;3.13;83.25
68859;BME280;55864;49.238;8.092;2022-12-07T00:19:35;99618.47;;;3.20;83.39
68859;BME280;55864;49.238;8.092;2022-12-07T00:21:36;99619.84;;;3.39;82.81
68859;BME280;55864;49.238;8.092;2022-12-07T00:23:37;99616.84;;;3.31;82.07
68859;BME280;55864;49.238;8.092;2022-12-07T00:25:37;99613.25;;;3.34;83.20
68859;BME280;55864;49.238;8.092;2022-12-07T00:27:38;99615.69;;;3.37;82.18
68859;BME280;55864;49.238;8.092;2022-12-07T00:29:39;99613.63;;;3.28;83.00
68859;BME280;55864;49.238;8.092;2022-12-07T00:31:39;99610.66;;;3.34;82.38
68859;BME280;55864;49.238;8.092;2022-12-07T00:33:41;99608.53;;;3.26;82.48
68859;BME280;55864;49.238;8.092;2022-12-07T00:35:42;99610.00;;;3.30;82.87
68859;BME280;55864;49.238;8.092;2022-12-07T00:37:42;99606.00;;;3.39;82.69
68859;BME280;55864;49.238;8.092;2022-12-07T00:39:43;99596.38;;;3.41;82.76
68859;BME280;55864;49.238;8.092;2022-12-07T00:41:43;99607.59;;;3.41;82.51
68859;BME280;55864;49.238;8.092;2022-12-07T00:43:45;99607.88;;;3.51;82.15
68859;BME280;55864;49.238;8.092;2022-12-07T00:45:45;99608.59;;;3.53;82.14
68859;BME280;55864;49.238;8.092;2022-12-07T00:47:46;99603.78;;;3.61;82.41
68859;BME280;55864;49.238;8.092;2022-12-07T00:49:48;99601.09;;;3.48;82.40
68859;BME280;55864;49.238;8.092;2022-12-07T00:51:48;99596.63;;;3.50;82.34
68859;BME280;55864;49.238;8.092;2022-12-07T00:53:49;99598.59;;;3.47;82.49
68859;BME280;55864;49.238;8.092;2022-12-07T00:55:50;99602.50;;;3.40;82.44
68859;BME280;55864;49.238;8.092;2022-12-07T00:57:50;99609.34;;;3.41;81.70
68859;BME280;55864;49.238;8.092;2022-12-07T00:59:51;99609.00;;;3.33;82.53
68859;BME280;55864;49.238;8.092;2022-12-07T01:01:51;99609.19;;;3.44;82.00
68859;BME280;55864;49.238;8.092;2022-12-07T01:03:52;99609.66;;;3.36;82.37
68859;BME280;55864;49.238;8.092;2022-12-07T01:05:55;99609.16;;;3.30;81.92
68859;BME280;55864;49.238;8.092;2022-12-07T01:07:56;99611.41;;;3.22;82.81
68859;BME280;55864;49.238;8.092;2022-12-07T01:09:56;99607.25;;;3.19;82.81
68859;BME280;55864;49.238;8.092;2022-12-07T01:11:57;99608.25;;;3.17;83.21
68859;BME280;55864;49.238;8.092;2022-12-07T01:13:58;99603.69;;;3.20;83.56
68859;BME280;55864;49.238;8.092;2022-12-07T01:16:01;99602.44;;;3.27;83.41
68859;BME280;55864;49.238;8.092;2022-12-07T01:18:02;99607.69;;;3.26;83.39
68859;BME280;55864;49.238;8.092;2022-12-07T01:20:03;99600.63;;;3.28;82.98
68859;BME280;55864;49.238;8.092;2022-12-07T01:22:05;99606.56;;;3.30;83.04
68859;BME280;55864;49.238;8.092;2022-12-07T01:24:08;99605.75;;;3.29;82.46
68859;BME280;55864;49.238;8.092;2022-12-07T01:26:10;99601.19;;;3.47;81.93
68859;BME280;55864;49.238;8.092;2022-12-07T01:28:11;99600.44;;;3.45;82.20
68859;BME280;55864;49.238;8.092;2022-12-07T01:30:13;99609.16;;;3.58;81.64
68859;BME280;55864;49.238;8.092;2022-12-07T01:32:13;99598.97;;;3.55;82.56
68859;BME280;55864;49.238;8.092;2022-12-07T01:34:14;99605.63;;;3.59;82.09
68859;BME280;55864;49.238;8.092;2022-12-07T01:36:17;99606.53;;;3.72;81.57
68859;BME280;55864;49.238;8.092;2022-12-07T01:38:19;99606.75;;;3.69;81.42
68859;BME280;55864;49.238;8.092;2022-12-07T01:40:20;99612.66;;;3.71;81.47
68859;BME280;55864;49.238;8.092;2022-12-07T01:42:20;99610.91;;;3.71;80.88
68859;BME280;55864;49.238;8.092;2022-12-07T01:44:23;99608.66;;;3.79;80.56
68859;BME280;55864;49.238;8.092;2022-12-07T01:46:24;99607.63;;;3.82;80.59
68859;BME280;55864;49.238;8.092;2022-12-07T01:48:27;99609.19;;;3.84;80.07
68859;BME280;55864;49.238;8.092;2022-12-07T01:50:29;99606.59;;;3.84;79.82
68859;BME280;55864;49.238;8.092;2022-12-07T01:52:31;99599.38;;;3.90;81.08
68859;BME280;55864;49.238;8.092;2022-12-07T01:54:35;99607.22;;;3.88;80.97
68859;BME280;55864;49.238;8.092;2022-12-07T01:56:37;99599.63;;;3.85;81.05
68859;BME280;55864;49.238;8.092;2022-12-07T01:58:40;99605.38;;;3.90;81.71
68859;BME280;55864;49.238;8.092;2022-12-07T02:00:41;99603.50;;;3.92;81.17
68859;BME280;55864;49.238;8.092;2022-12-07T02:02:44;99598.16;;;3.81;80.61
68859;BME280;55864;49.238;8.092;2022-12-07T02:04:46;99601.13;;;3.75;81.30
68859;BME280;55864;49.238;8.092;2022-12-07T02:06:47;99597.47;;;3.65;82.25
68859;BME280;55864;49.238;8.092;2022-12-07T02:08:48;99595.78;;;3.64;81.49
68859;BME280;55864;49.238;8.092;2022-12-07T02:10:50;99596.84;;;3.61;80.81
68859;BME280;55864;49.238;8.092;2022-12-07T02:12:53;99592.81;;;3.70;81.60
68859;BME280;55864;49.238;8.092;2022-12-07T02:14:55;99577.38;;;3.81;81.63
68859;BME280;55864;49.238;8.092;2022-12-07T02:17:06;99583.13;;;3.86;81.05
68859;BME280;55864;49.238;8.092;2022-12-07T02:19:29;99585.00;;;3.84;81.55
68859;BME280;55864;49.238;8.092;2022-12-07T02:21:42;99594.25;;;3.88;81.68
68859;BME280;55864;49.238;8.092;2022-12-07T02:24:24;99599.16;;;3.93;81.20
68859;BME280;55864;49.238;8.092;2022-12-07T02:29:00;99598.94;;;3.96;80.83
68859;BME280;55864;49.238;8.092;2022-12-07T02:31:12;99593.75;;;3.96;80.64
68859;BME280;55864;49.238;8.092;2022-12-07T02:33:17;99590.84;;;3.88;80.47
68859;BME280;55864;49.238;8.092;2022-12-07T02:35:21;99584.78;;;3.87;80.12
68859;BME280;55864;49.238;8.092;2022-12-07T02:37:32;99588.03;;;3.91;79.39
68859;BME280;55864;49.238;8.092;2022-12-07T02:39:41;99583.13;;;3.86;79.19
68859;BME280;55864;49.238;8.092;2022-12-07T02:41:44;99583.03;;;3.88;78.27
68859;BME280;55864;49.238;8.092;2022-12-07T02:43:50;99577.75;;;3.89;78.21
68859;BME280;55864;49.238;8.092;2022-12-07T02:45:56;99575.97;;;3.90;78.32
68859;BME280;55864;49.238;8.092;2022-12-07T02:47:59;99572.75;;;3.86;77.95
68859;BME280;55864;49.238;8.092;2022-12-07T02:50:03;99569.09;;;3.89;78.41
68859;BME280;55864;49.238;8.092;2022-12-07T02:52:04;99573.44;;;3.88;78.29
68859;BME280;55864;49.238;8.092;2022-12-07T02:54:09;99568.47;;;3.85;78.96
68859;BME280;55864;49.238;8.092;2022-12-07T02:56:20;99569.94;;;3.89;79.10
68859;BME280;55864;49.238;8.092;2022-12-07T02:58:32;99563.00;;;3.90;79.60
68859;BME280;55864;49.238;8.092;2022-12-07T03:00:43;99569.84;;;3.91;80.11
68859;BME280;55864;49.238;8.092;2022-12-07T03:02:52;99562.88;;;3.91;79.91
68859;BME280;55864;49.238;8.092;2022-12-07T03:05:02;99566.25;;;3.79;79.44
68859;BME280;55864;49.238;8.092;2022-12-07T03:07:17;99565.91;;;3.71;79.57
68859;BME280;55864;49.238;8.092;2022-12-07T03:09:22;99559.03;;;3.70;79.84
68859;BME280;55864;49.238;8.092;2022-12-07T03:11:32;99561.25;;;3.76;79.39
68859;BME280;55864;49.238;8.092;2022-12-07T03:13:39;99562.00;;;3.78;79.33
68859;BME280;55864;49.238;8.092;2022-12-07T03:15:46;99554.22;;;3.64;79.63
68859;BME280;55864;49.238;8.092;2022-12-07T03:17:52;99552.00;;;3.58;80.31
68859;BME280;55864;49.238;8.092;2022-12-07T03:20:00;99557.41;;;3.69;80.39
68859;BME280;55864;49.238;8.092;2022-12-07T03:22:04;99560.31;;;3.77;80.12
68859;BME280;55864;49.238;8.092;2022-12-07T03:24:06;99554.06;;;3.67;80.11
68859;BME280;55864;49.238;8.092;2022-12-07T03:26:11;99553.88;;;3.56;79.80
68859;BME280;55864;49.238;8.092;2022-12-07T03:28:13;99553.63;;;3.46;79.72
68859;BME280;55864;49.238;8.092;2022-12-07T03:30:18;99555.47;;;3.58;79.52
68859;BME280;55864;49.238;8.092;2022-12-07T03:32:22;99547.50;;;3.61;80.05
68859;BME280;55864;49.238;8.092;2022-12-07T03:34:29;99544.78;;;3.63;79.82
68859;BME280;55864;49.238;8.092;2022-12-07T03:36:34;99544.78;;;3.63;77.59
68859;BME280;55864;49.238;8.092;2022-12-07T03:38:38;99540.59;;;3.74;77.46
68859;BME280;55864;49.238;8.092;2022-12-07T03:40:45;99533.28;;;3.67;78.03
68859;BME280;55864;49.238;8.092;2022-12-07T03:42:48;99539.22;;;3.69;78.04
68859;BME280;55864;49.238;8.092;2022-12-07T03:44:50;99529.16;;;3.77;77.75
68859;BME280;55864;49.238;8.092;2022-12-07T03:46:57;99536.84;;;3.78;78.02
68859;BME280;55864;49.238;8.092;2022-12-07T03:49:06;99542.59;;;3.83;78.27
68859;BME280;55864;49.238;8.092;2022-12-07T03:51:13;99536.31;;;3.73;78.54
68859;BME280;55864;49.238;8.092;2022-12-07T03:53:20;99525.97;;;3.86;77.74
68859;BME280;55864;49.238;8.092;2022-12-07T03:55:26;99525.56;;;3.92;77.39
68859;BME280;55864;49.238;8.092;2022-12-07T03:57:28;99534.59;;;3.87;77.81
68859;BME280;55864;49.238;8.092;2022-12-07T03:59:30;99521.94;;;3.95;77.25
68859;BME280;55864;49.238;8.092;2022-12-07T04:01:31;99521.41;;;3.90;77.37
68859;BME280;55864;49.238;8.092;2022-12-07T04:03:31;99524.09;;;3.88;77.78
68859;BME280;55864;49.238;8.092;2022-12-07T04:05:33;99513.44;;;3.78;77.63
68859;BME280;55864;49.238;8.092;2022-12-07T04:07:35;99525.56;;;3.92;76.94
68859;BME280;55864;49.238;8.092;2022-12-07T04:09:35;99519.72;;;3.89;77.80
68859;BME280;55864;49.238;8.092;2022-12-07T04:11:36;99524.00;;;3.90;78.23
68859;BME280;55864;49.238;8.092;2022-12-07T04:13:36;99510.69;;;3.81;77.21
68859;BME280;55864;49.238;8.092;2022-12-07T04:15:37;99515.03;;;3.81;77.02
68859;BME280;55864;49.238;8.092;2022-12-07T04:17:37;99517.44;;;3.84;77.31
68859;BME280;55864;49.238;8.092;2022-12-07T04:19:38;99509.97;;;3.92;77.20
68859;BME280;55864;49.238;8.092;2022-12-07T04:21:39;99511.03;;;3.90;77.24
68859;BME280;55864;49.238;8.092;2022-12-07T04:23:41;99512.78;;;3.89;77.03
68859;BME280;55864;49.238;8.092;2022-12-07T04:25:41;99512.25;;;3.84;77.25
68859;BME280;55864;49.238;8.092;2022-12-07T04:27:42;99513.53;;;3.91;77.54
68859;BME280;55864;49.238;8.092;2022-12-07T04:29:42;99513.00;;;3.86;77.11
68859;BME280;55864;49.238;8.092;2022-12-07T04:31:43;99513.69;;;3.88;77.99
68859;BME280;55864;49.238;8.092;2022-12-07T04:33:44;99517.03;;;3.90;77.31
68859;BME280;55864;49.238;8.092;2022-12-07T04:35:44;99517.88;;;3.91;77.53
68859;BME280;55864;49.238;8.092;2022-12-07T04:37:45;99507.31;;;3.94;76.56
68859;BME280;55864;49.238;8.092;2022-12-07T04:39:46;99505.41;;;3.96;76.55
68859;BME280;55864;49.238;8.092;2022-12-07T04:41:47;99503.22;;;3.90;76.86
68859;BME280;55864;49.238;8.092;2022-12-07T04:43:48;99508.44;;;3.90;77.08
68859;BME280;55864;49.238;8.092;2022-12-07T04:45:49;99506.63;;;3.90;76.99
68859;BME280;55864;49.238;8.092;2022-12-07T04:47:49;99500.81;;;3.87;77.15
68859;BME280;55864;49.238;8.092;2022-12-07T04:49:50;99500.31;;;3.94;76.23
68859;BME280;55864;49.238;8.092;2022-12-07T04:51:51;99502.63;;;3.99;76.53
68859;BME280;55864;49.238;8.092;2022-12-07T04:53:52;99495.47;;;4.02;76.57
68859;BME280;55864;49.238;8.092;2022-12-07T04:55:54;99503.16;;;4.04;76.87
68859;BME280;55864;49.238;8.092;2022-12-07T04:57:54;99491.38;;;3.98;76.31
68859;BME280;55864;49.238;8.092;2022-12-07T04:59:55;99499.41;;;3.95;77.04
68859;BME280;55864;49.238;8.092;2022-12-07T05:01:55;99495.84;;;3.96;76.25
68859;BME280;55864;49.238;8.092;2022-12-07T05:03:56;99495.97;;;3.95;77.17
68859;BME280;55864;49.238;8.092;2022-12-07T05:05:56;99497.53;;;3.97;77.00
68859;BME280;55864;49.238;8.092;2022-12-07T05:07:57;99510.09;;;4.03;77.39
68859;BME280;55864;49.238;8.092;2022-12-07T05:09:57;99508.44;;;4.02;77.57
68859;BME280;55864;49.238;8.092;2022-12-07T05:11:59;99514.88;;;3.97;78.25
68859;BME280;55864;49.238;8.092;2022-12-07T05:14:00;99514.78;;;3.98;78.02
68859;BME280;55864;49.238;8.092;2022-12-07T05:16:01;99509.59;;;3.98;78.38
68859;BME280;55864;49.238;8.092;2022-12-07T05:18:02;99521.06;;;4.08;78.40
68859;BME280;55864;49.238;8.092;2022-12-07T05:20:04;99510.44;;;4.11;78.29
68859;BME280;55864;49.238;8.092;2022-12-07T05:22:05;99508.97;;;4.07;78.90
68859;BME280;55864;49.238;8.092;2022-12-07T05:24:06;99509.91;;;4.06;78.54
68859;BME280;55864;49.238;8.092;2022-12-07T05:26:07;99509.78;;;3.95;78.68
68859;BME280;55864;49.238;8.092;2022-12-07T05:28:08;99501.25;;;3.93;79.44
68859;BME280;55864;49.238;8.092;2022-12-07T05:30:10;99508.09;;;3.94;79.13
68859;BME280;55864;49.238;8.092;2022-12-07T05:32:10;99509.97;;;3.92;79.64
68859;BME280;55864;49.238;8.092;2022-12-07T05:34:11;99510.91;;;3.91;79.88
68859;BME280;55864;49.238;8.092;2022-12-07T05:36:11;99509.78;;;3.95;80.07
68859;BME280;55864;49.238;8.092;2022-12-07T05:38:12;99505.97;;;4.01;80.03
68859;BME280;55864;49.238;8.092;2022-12-07T05:42:14;99512.69;;;4.03;80.41
68859;BME280;55864;49.238;8.092;2022-12-07T05:44:16;99506.69;;;4.03;79.60
68859;BME280;55864;49.238;8.092;2022-12-07T05:46:16;99504.84;;;4.05;80.31
68859;BME280;55864;49.238;8.092;2022-12-07T05:48:17;99512.69;;;3.91;80.18
68859;BME280;55864;49.238;8.092;2022-12-07T05:50:17;99503.38;;;4.01;80.40
68859;BME280;55864;49.238;8.092;2022-12-07T05:52:18;99509.59;;;3.98;80.59
68859;BME280;55864;49.238;8.092;2022-12-07T05:54:18;99504.69;;;3.94;81.25
68859;BME280;55864;49.238;8.092;2022-12-07T05:56:19;99504.84;;;4.05;81.85
68859;BME280;55864;49.238;8.092;2022-12-07T05:58:20;99509.47;;;4.00;81.68
68859;BME280;55864;49.238;8.092;2022-12-07T06:00:22;99499.00;;;4.01;81.97
68859;BME280;55864;49.238;8.092;2022-12-07T06:02:22;99502.03;;;4.08;81.92
68859;BME280;55864;49.238;8.092;2022-12-07T06:04:24;99498.69;;;4.06;82.34
68859;BME280;55864;49.238;8.092;2022-12-07T06:06:25;99499.63;;;4.05;82.00
68859;BME280;55864;49.238;8.092;2022-12-07T06:08:26;99498.78;;;4.04;81.88
68859;BME280;55864;49.238;8.092;2022-12-07T06:10:26;99503.25;;;4.02;82.46
68859;BME280;55864;49.238;8.092;2022-12-07T06:12:26;99502.13;;;4.06;81.82
68859;BME280;55864;49.238;8.092;2022-12-07T06:14:27;99497.84;;;4.05;82.18
68859;BME280;55864;49.238;8.092;2022-12-07T06:16:29;99499.09;;;4.00;81.85
68859;BME280;55864;49.238;8.092;2022-12-07T06:18:29;99501.19;;;4.07;82.61
68859;BME280;55864;49.238;8.092;2022-12-07T06:20:30;99499.72;;;4.03;82.58
68859;BME280;55864;49.238;8.092;2022-12-07T06:22:30;99497.94;;;4.04;81.83
68859;BME280;55864;49.238;8.092;2022-12-07T06:24:31;99505.00;;;4.02;82.43
68859;BME280;55864;49.238;8.092;2022-12-07T06:26:32;99499.41;;;3.95;82.04
68859;BME280;55864;49.238;8.092;2022-12-07T06:28:33;99502.31;;;4.03;81.92
68859;BME280;55864;49.238;8.092;2022-12-07T06:30:33;99494.81;;;3.86;82.30
68859;BME280;55864;49.238;8.092;2022-12-07T06:32:36;99506.81;;;3.74;82.25
68859;BME280;55864;49.238;8.092;2022-12-07T06:34:37;99495.47;;;3.75;82.66
68859;BME280;55864;49.238;8.092;2022-12-07T06:36:38;99502.03;;;3.81;82.56
68859;BME280;55864;49.238;8.092;2022-12-07T06:38:39;99500.41;;;3.93;82.49
68859;BME280;55864;49.238;8.092;2022-12-07T06:40:39;99509.16;;;3.92;82.63
68859;BME280;55864;49.238;8.092;2022-12-07T06:42:40;99503.84;;;3.93;82.72
68859;BME280;55864;49.238;8.092;2022-12-07T06:44:40;99510.72;;;3.94;82.54
68859;BME280;55864;49.238;8.092;2022-12-07T06:46:41;99501.66;;;3.87;82.40
68859;BME280;55864;49.238;8.092;2022-12-07T06:48:43;99501.16;;;3.95;82.69
68859;BME280;55864;49.238;8.092;2022-12-07T06:50:44;99503.84;;;3.93;82.66
68859;BME280;55864;49.238;8.092;2022-12-07T06:52:44;99518.50;;;3.94;82.71
68859;BME280;55864;49.238;8.092;2022-12-07T06:54:45;99512.50;;;3.94;83.00
68859;BME280;55864;49.238;8.092;2022-12-07T06:56:45;99511.25;;;3.99;82.43
68859;BME280;55864;49.238;8.092;2022-12-07T06:58:46;99508.09;;;3.81;82.64
68859;BME280;55864;49.238;8.092;2022-12-07T07:00:48;99507.78;;;3.86;82.90
68859;BME280;55864;49.238;8.092;2022-12-07T07:02:48;99510.78;;;3.80;84.04
68859;BME280;55864;49.238;8.092;2022-12-07T07:04:50;99516.72;;;3.82;83.12
68859;BME280;55864;49.238;8.092;2022-12-07T07:06:51;99515.00;;;3.68;83.96
68859;BME280;55864;49.238;8.092;2022-12-07T07:08:51;99521.06;;;3.55;84.29
68859;BME280;55864;49.238;8.092;2022-12-07T07:10:52;99526.09;;;3.44;85.35
68859;BME280;55864;49.238;8.092;2022-12-07T07:12:52;99527.66;;;3.73;83.31
68859;BME280;55864;49.238;8.092;2022-12-07T07:14:53;99528.16;;;3.65;84.35
68859;BME280;55864;49.238;8.092;2022-12-07T07:16:53;99529.78;;;3.54;84.46
68859;BME280;55864;49.238;8.092;2022-12-07T07:18:54;99526.34;;;3.53;84.80
68859;BME280;55864;49.238;8.092;2022-12-07T07:20:56;99528.13;;;3.39;84.91
68859;BME280;55864;49.238;8.092;2022-12-07T07:22:56;99541.31;;;3.50;85.48
68859;BME280;55864;49.238;8.092;2022-12-07T07:24:57;99533.78;;;3.45;84.87
68859;BME280;55864;49.238;8.092;2022-12-07T07:26:57;99540.19;;;3.40;85.37
68859;BME280;55864;49.238;8.092;2022-12-07T07:28:58;99544.06;;;3.47;84.96
68859;BME280;55864;49.238;8.092;2022-12-07T07:30:59;99538.03;;;3.46;85.23
68859;BME280;55864;49.238;8.092;2022-12-07T07:33:03;99541.69;;;3.44;85.40
68859;BME280;55864;49.238;8.092;2022-12-07T07:35:04;99547.25;;;3.38;85.29
68859;BME280;55864;49.238;8.092;2022-12-07T07:37:06;99552.22;;;3.55;84.38
68859;BME280;55864;49.238;8.092;2022-12-07T07:39:07;99552.75;;;3.60;84.17
68859;BME280;55864;49.238;8.092;2022-12-07T07:41:08;99546.09;;;3.56;84.21
68859;BME280;55864;49.238;8.092;2022-12-07T07:43:08;99548.94;;;3.65;83.24
68859;BME280;55864;49.238;8.092;2022-12-07T07:45:09;99553.38;;;3.63;83.27
68859;BME280;55864;49.238;8.092;2022-12-07T07:47:10;99547.88;;;3.55;84.02
68859;BME280;55864;49.238;8.092;2022-12-07T07:49:10;99547.06;;;3.67;83.52
68859;BME280;55864;49.238;8.092;2022-12-07T07:51:11;99559.56;;;3.75;83.25
68859;BME280;55864;49.238;8.092;2022-12-07T07:53:13;99557.66;;;3.64;83.43
68859;BME280;55864;49.238;8.092;2022-12-07T07:55:14;99571.09;;;3.71;83.88
68859;BME280;55864;49.238;8.092;2022-12-07T07:57:16;99566.31;;;3.51;84.32
68859;BME280;55864;49.238;8.092;2022-12-07T07:59:16;99566.47;;;3.62;83.86
68859;BME280;55864;49.238;8.092;2022-12-07T08:01:17;99571.56;;;3.63;84.14
68859;BME280;55864;49.238;8.092;2022-12-07T08:03:17;99574.31;;;3.48;84.81
68859;BME280;55864;49.238;8.092;2022-12-07T08:05:18;99580.16;;;3.51;84.64
68859;BME280;55864;49.238;8.092;2022-12-07T08:07:18;99582.09;;;3.48;85.38
68859;BME280;55864;49.238;8.092;2022-12-07T08:09:20;99585.97;;;3.55;84.48
68859;BME280;55864;49.238;8.092;2022-12-07T08:11:21;99582.00;;;3.49;84.55
68859;BME280;55864;49.238;8.092;2022-12-07T08:13:21;99582.06;;;3.62;84.50
68859;BME280;55864;49.238;8.092;2022-12-07T08:15:22;99589.84;;;3.62;84.32
68859;BME280;55864;49.238;8.092;2022-12-07T08:17:22;99589.28;;;3.71;83.61
68859;BME280;55864;49.238;8.092;2022-12-07T08:19:23;99590.69;;;3.62;83.89
68859;BME280;55864;49.238;8.092;2022-12-07T08:21:24;99596.25;;;3.56;84.97
68859;BME280;55864;49.238;8.092;2022-12-07T08:23:24;99586.97;;;3.66;84.74
68859;BME280;55864;49.238;8.092;2022-12-07T08:25:27;99596.34;;;3.69;84.56
68859;BME280;55864;49.238;8.092;2022-12-07T08:27:27;99592.06;;;3.68;84.45
68859;BME280;55864;49.238;8.092;2022-12-07T08:29:28;99592.28;;;3.51;85.36
68859;BME280;55864;49.238;8.092;2022-12-07T08:31:29;99591.16;;;3.69;85.45
68859;BME280;55864;49.238;8.092;2022-12-07T08:33:29;99591.53;;;3.63;85.14
68859;BME280;55864;49.238;8.092;2022-12-07T08:35:32;99587.09;;;3.65;84.94
68859;BME280;55864;49.238;8.092;2022-12-07T08:37:33;99592.91;;;3.68;84.91
68859;BME280;55864;49.238;8.092;2022-12-07T08:39:33;99590.59;;;3.64;84.74
68859;BME280;55864;49.238;8.092;2022-12-07T08:41:35;99596.00;;;3.61;85.12
68859;BME280;55864;49.238;8.092;2022-12-07T08:43:36;99595.50;;;3.68;85.38
68859;BME280;55864;49.238;8.092;2022-12-07T08:45:40;99599.66;;;3.71;85.43
68859;BME280;55864;49.238;8.092;2022-12-07T08:47:44;99598.53;;;3.75;85.29
68859;BME280;55864;49.238;8.092;2022-12-07T08:49:47;99595.94;;;3.75;84.67
68859;BME280;55864;49.238;8.092;2022-12-07T08:51:51;99592.22;;;3.79;84.50
68859;BME280;55864;49.238;8.092;2022-12-07T08:53:52;99593.06;;;3.79;84.89
68859;BME280;55864;49.238;8.092;2022-12-07T08:55:54;99587.19;;;3.90;84.39
68859;BME280;55864;49.238;8.092;2022-12-07T08:57:59;99590.28;;;3.82;83.75
68859;BME280;55864;49.238;8.092;2022-12-07T08:59:59;99586.84;;;3.82;84.09
68859;BME280;55864;49.238;8.092;2022-12-07T09:02:00;99585.66;;;3.73;84.88
68859;BME280;55864;49.238;8.092;2022-12-07T09:04:00;99582.09;;;3.89;84.09
68859;BME280;55864;49.238;8.092;2022-12-07T09:06:01;99587.88;;;3.79;84.23
68859;BME280;55864;49.238;8.092;2022-12-07T09:08:02;99586.84;;;3.82;84.30
68859;BME280;55864;49.238;8.092;2022-12-07T09:10:03;99587.03;;;3.79;84.44
68859;BME280;55864;49.238;8.092;2022-12-07T09:12:04;99593.56;;;3.72;84.50
68859;BME280;55864;49.238;8.092;2022-12-07T09:14:06;99595.94;;;3.89;83.90
68859;BME280;55864;49.238;8.092;2022-12-07T09:16:07;99594.66;;;3.82;84.30
68859;BME280;55864;49.238;8.092;2022-12-07T09:18:07;99598.38;;;3.64;84.98
68859;BME280;55864;49.238;8.092;2022-12-07T09:20:09;99599.59;;;3.72;85.05
68859;BME280;55864;49.238;8.092;2022-12-07T09:22:10;99603.31;;;3.68;84.65
68859;BME280;55864;49.238;8.092;2022-12-07T09:24:11;99600.81;;;3.67;84.90
68859;BME280;55864;49.238;8.092;2022-12-07T09:26:12;99600.50;;;3.71;85.28
68859;BME280;55864;49.238;8.092;2022-12-07T09:28:12;99596.88;;;3.74;85.42
68859;BME280;55864;49.238;8.092;2022-12-07T09:30:15;99600.13;;;3.77;85.44
68859;BME280;55864;49.238;8.092;2022-12-07T09:32:15;99593.91;;;3.80;84.13
68859;BME280;55864;49.238;8.092;2022-12-07T09:34:16;99595.38;;;3.84;85.31
68859;BME280;55864;49.238;8.092;2022-12-07T09:36:16;99595.19;;;3.87;84.65
68859;BME280;55864;49.238;8.092;2022-12-07T09:38:18;99598.31;;;3.92;83.53
68859;BME280;55864;49.238;8.092;2022-12-07T09:40:21;99596.19;;;3.84;84.64
68859;BME280;55864;49.238;8.092;2022-12-07T09:42:26;99592.47;;;3.89;84.79
68859;BME280;55864;49.238;8.092;2022-12-07T09:44:29;99586.53;;;3.87;83.84
68859;BME280;55864;49.238;8.092;2022-12-07T09:46:34;99588.50;;;3.83;84.86
68859;BME280;55864;49.238;8.092;2022-12-07T09:48:37;99588.97;;;3.90;84.95
68859;BME280;55864;49.238;8.092;2022-12-07T09:50:39;99590.00;;;3.87;84.63
68859;BME280;55864;49.238;8.092;2022-12-07T09:52:40;99587.88;;;3.79;84.75
68859;BME280;55864;49.238;8.092;2022-12-07T09:54:45;99591.56;;;3.90;84.53
68859;BME280;55864;49.238;8.092;2022-12-07T09:56:46;99586.38;;;3.90;84.18
68859;BME280;55864;49.238;8.092;2022-12-07T09:58:47;99575.88;;;3.91;84.54
68859;BME280;55864;49.238;8.092;2022-12-07T10:00:49;99580.69;;;3.97;84.83
68859;BME280;55864;49.238;8.092;2022-12-07T10:02:54;99582.78;;;4.05;83.72
68859;BME280;55864;49.238;8.092;2022-12-07T10:04:57;99573.63;;;3.99;84.48
68859;BME280;55864;49.238;8.092;2022-12-07T10:06:58;99578.88;;;4.12;84.42
68859;BME280;55864;49.238;8.092;2022-12-07T10:08:58;99581.69;;;3.95;84.53
68859;BME280;55864;49.238;8.092;2022-12-07T10:11:01;99582.53;;;3.95;85.44
68859;BME280;55864;49.238;8.092;2022-12-07T10:13:04;99578.66;;;3.88;84.61
68859;BME280;55864;49.238;8.092;2022-12-07T10:15:05;99573.81;;;3.96;85.33
68859;BME280;55864;49.238;8.092;2022-12-07T10:17:32;99577.78;;;4.02;84.70
68859;BME280;55864;49.238;8.092;2022-12-07T10:19:34;99575.06;;;4.03;84.72
68859;BME280;55864;49.238;8.092;2022-12-07T10:21:36;99571.34;;;4.07;84.28
68859;BME280;55864;49.238;8.092;2022-12-07T10:23:38;99572.28;;;4.06;83.95
68859;BME280;55864;49.238;8.092;2022-12-07T10:25:39;99573.75;;;4.10;84.87
68859;BME280;55864;49.238;8.092;2022-12-07T10:27:40;99570.97;;;4.13;83.64
68859;BME280;55864;49.238;8.092;2022-12-07T10:29:47;99562.75;;;4.07;83.92
68859;BME280;55864;49.238;8.092;2022-12-07T10:31:52;99567.13;;;4.19;83.91
68859;BME280;55864;49.238;8.092;2022-12-07T10:33:56;99555.06;;;4.18;83.15
68859;BME280;55864;49.238;8.092;2022-12-07T10:35:59;99563.25;;;4.12;84.55
68859;BME280;55864;49.238;8.092;2022-12-07T10:38:00;99552.25;;;4.08;84.20
68859;BME280;55864;49.238;8.092;2022-12-07T10:40:01;99560.31;;;4.04;84.52
68859;BME280;55864;49.238;8.092;2022-12-07T10:42:03;99558.34;;;4.07;84.50
68859;BME280;55864;49.238;8.092;2022-12-07T10:44:04;99556.81;;;4.05;84.10
68859;BME280;55864;49.238;8.092;2022-12-07T10:48:49;99556.59;;;4.08;83.87
68859;BME280;55864;49.238;8.092;2022-12-07T10:51:00;99551.91;;;4.13;83.26
68859;BME280;55864;49.238;8.092;2022-12-07T10:53:23;99544.56;;;4.19;83.96
68859;BME280;55864;49.238;8.092;2022-12-07T10:55:35;99542.91;;;4.18;83.63
68859;BME280;55864;49.238;8.092;2022-12-07T10:57:47;99539.16;;;4.22;83.46
68859;BME280;55864;49.238;8.092;2022-12-07T11:00:01;99540.50;;;4.15;83.44
68859;BME280;55864;49.238;8.092;2022-12-07T11:04:33;99536.56;;;4.22;83.98
68859;BME280;55864;49.238;8.092;2022-12-07T11:06:43;99531.69;;;4.30;83.32